Carnival Pride — H3VU — position and weather

sailwx.info

Track history (hours):
 
Tides and Currents Weather Stations Pressure Air Temp Water Temp Dewpoint Dewpoint Depression Visibility Wind Speed Wind Dir Waves Ship Positions

Carnival Pride

Operator: Carnival Cruise Lines

Last reported at 2019-Feb-05 13:00 UTC. Time now 2019-Feb-16 03:36 UTC.
Position N 28°42' W 080°06'.
Warning: this ship's position is 10 days out of date.

Type: Passenger vessel. MMSI: 354215000.

Wind from 350 at 10 knots

Barometer 1022.2 mb
Air temperature 19.0 ° C
Visibility: greater than 27.0 NM
Dewpoint 11.8 ° C
Water temperature 24.0 ° C

Date/timePositionNaut miles runAvg speedWind from/ knotsBaromVisibWave heightAir tempDewpointWater temp
2019-Feb-05 13:00N 28°42' W 080°06'20120.1 350 / 101022.227.0 19.011.824.0
2019-Feb-05 03:00N 32°00' W 079°24'35016.2 290 / 251020.6 5.4 18.014.621.0
2019-Feb-04 05:21N 37°11' W 076°09'1317.8
2019-Feb-04 04:36N 37°24' W 076°05'1019.0
2019-Feb-04 04:06N 37°33' W 076°02'419.3
2019-Feb-04 03:54N 37°36' W 076°05'1119.3
2019-Feb-04 03:19N 37°46' W 076°11'821.5
2019-Feb-04 02:55N 37°55' W 076°09'921.0
2019-Feb-04 02:29N 38°03' W 076°13'1421.7
2019-Feb-04 01:50N 38°17' W 076°17'722.1
2019-Feb-04 01:30N 38°24' W 076°21'1421.1
2019-Feb-04 00:50N 38°37' W 076°25'721.2
2019-Feb-04 00:29N 38°45' W 076°26'1020.9
2019-Feb-04 00:01N 38°55' W 076°24'916.7
2019-Feb-03 23:30N 39°03' W 076°23'714.6
2019-Feb-03 22:59N 39°10' W 076°26'5 9.8
2019-Feb-03 22:30N 39°13' W 076°31'4 8.4
2019-Feb-03 22:00N 39°15' W 076°35'1 1.4
2019-Feb-03 21:30N 39°16' W 076°36'0 0.0
2019-Feb-03 21:00N 39°16' W 076°36'0 0.0
2019-Feb-03 20:30N 39°16' W 076°36'0 0.0
2019-Feb-03 19:59N 39°16' W 076°36'0 0.0
2019-Feb-03 19:30N 39°16' W 076°36'0 0.0
2019-Feb-03 19:00N 39°16' W 076°36'0 0.0
2019-Feb-03 18:30N 39°16' W 076°36'0 0.0
2019-Feb-03 18:00N 39°16' W 076°36'0 0.0
2019-Feb-03 17:30N 39°16' W 076°36'0 0.0
2019-Feb-03 17:00N 39°16' W 076°36'0 0.0
2019-Feb-03 16:30N 39°16' W 076°36'0 0.0
2019-Feb-03 16:00N 39°16' W 076°36'0 0.0
2019-Feb-03 15:30N 39°16' W 076°36'0 0.0
2019-Feb-03 15:00N 39°16' W 076°36'0 0.0
2019-Feb-03 14:30N 39°16' W 076°36'0 0.0
2019-Feb-03 14:00N 39°16' W 076°36'0 0.2
2019-Feb-03 13:30N 39°16' W 076°36'3 5.8
2019-Feb-03 13:00N 39°14' W 076°33'612.1
2019-Feb-03 12:30N 39°11' W 076°26'5 9.3
2019-Feb-03 12:01N 39°07' W 076°24'814.9
2019-Feb-03 11:30N 38°59' W 076°23'1019.9
2019-Feb-03 11:00N 38°49' W 076°25'1020.3
2019-Feb-03 10:30N 38°39' W 076°25'1619.9
2019-Feb-03 09:41N 38°23' W 076°20'421.0
2019-Feb-03 09:29N 38°19' W 076°18'1120.8
2019-Feb-03 08:58N 38°09' W 076°14'920.5
2019-Feb-03 08:30N 37°60' W 076°12'1019.3
2019-Feb-03 08:00N 37°50' W 076°09'1218.6
2019-Feb-03 07:22N 37°39' W 076°07'918.3
2019-Feb-03 06:54N 37°31' W 076°03'818.9
2019-Feb-03 06:30N 37°23' W 076°05'2117.5
2019-Feb-03 05:17N 37°02' W 076°04'40918.4
2019-Feb-02 07:00N 30°48' W 079°24'29410.9 120 / 351028.0 5.4 20.016.723.0
2019-Feb-01 04:00N 26°06' W 077°48'148 5.9 060 / 301026.2 5.4 22.017.225.0
2019-Jan-31 03:00N 25°42' W 075°06'   040 / 201024.7 5.4 22.017.225.0
2019-Jan-28 18:00N 34°42' W 075°42'5117.1 340 / 451020.0 5.4 10.0 7.920.0
2019-Jan-28 15:00N 35°24' W 075°06'4916.3 360 / 301017.2 10.0 0.114.0
2019-Jan-28 12:00N 36°12' W 075°18'11016.1 050 / 351017.427.0 7.0 2.110.0
2019-Jan-28 05:08N 37°54' W 076°10'319.7
2019-Jan-28 04:58N 37°57' W 076°12'919.3
2019-Jan-28 04:29N 38°06' W 076°14'3518.6
2019-Jan-28 02:36N 38°40' W 076°25'318.7
2019-Jan-28 02:27N 38°43' W 076°26'818.1
2019-Jan-28 02:00N 38°51' W 076°24'816.2
2019-Jan-28 01:30N 38°59' W 076°23'714.5
2019-Jan-28 01:00N 39°06' W 076°24'611.7
2019-Jan-28 00:30N 39°11' W 076°28'612.3
2019-Jan-28 00:00N 39°15' W 076°34'2 3.5
2019-Jan-27 23:29N 39°16' W 076°36'0 0.0
2019-Jan-27 23:00N 39°16' W 076°36'0 0.0
2019-Jan-27 22:31N 39°16' W 076°36'0 0.0
2019-Jan-27 21:58N 39°16' W 076°36'0 0.0
2019-Jan-27 21:30N 39°16' W 076°36'0 0.0
2019-Jan-27 20:56N 39°16' W 076°36'0 0.0
2019-Jan-27 20:26N 39°16' W 076°36'0 0.0
2019-Jan-27 19:56N 39°16' W 076°36'0 0.0
2019-Jan-27 19:26N 39°16' W 076°36'0 0.0
2019-Jan-27 18:52N 39°16' W 076°36'0 0.0
2019-Jan-27 18:26N 39°16' W 076°36'0 0.0
2019-Jan-27 17:59N 39°16' W 076°36'0 0.0
2019-Jan-27 17:30N 39°16' W 076°36'0 0.0
2019-Jan-27 17:00N 39°16' W 076°36'0 0.0
2019-Jan-27 16:30N 39°16' W 076°36'0 0.0
2019-Jan-27 15:50N 39°16' W 076°36'0 0.0
2019-Jan-27 15:31N 39°16' W 076°36'0 0.0
2019-Jan-27 14:50N 39°16' W 076°36'0 0.0
2019-Jan-27 14:30N 39°16' W 076°36'0 0.0
2019-Jan-27 13:58N 39°16' W 076°36'0 0.0
2019-Jan-27 13:30N 39°16' W 076°36'3 5.2
2019-Jan-27 13:00N 39°14' W 076°33'510.4
2019-Jan-27 12:30N 39°11' W 076°28'511.0
2019-Jan-27 12:00N 39°07' W 076°24'714.5
2019-Jan-27 11:30N 38°60' W 076°23'918.2
2019-Jan-27 11:00N 38°51' W 076°24'918.9
2019-Jan-27 10:30N 38°41' W 076°25'918.8
2019-Jan-27 10:00N 38°32' W 076°25'1019.4
2019-Jan-27 09:31N 38°23' W 076°20'1019.1
2019-Jan-27 09:00N 38°14' W 076°16'1019.4
2019-Jan-27 08:30N 38°05' W 076°13'1019.2
2019-Jan-27 08:00N 37°55' W 076°09'1019.3
2019-Jan-27 07:30N 37°46' W 076°11'1218.2
2019-Jan-27 06:49N 37°35' W 076°04'617.7
2019-Jan-27 06:29N 37°29' W 076°04'3714.3
2019-Jan-27 03:53N 36°53' W 075°52'16118.1
2019-Jan-26 19:00N 34°12' W 075°42'   020 / 101028.027.0 12.0 2.923.0
Track history (hours):
 
Tides and Currents Weather Stations Pressure Air Temp Water Temp Dewpoint Dewpoint Depression Visibility Wind Speed Wind Dir Waves Ship Positions

Carnival Pride

Operator: Carnival Cruise Lines

Last reported at 2019-Feb-05 13:00 UTC. Time now 2019-Feb-16 03:36 UTC.
Position N 28°42' W 080°06'.
Warning: this ship's position is 10 days out of date.

Type: Passenger vessel. MMSI: 354215000.

Wind from 350 at 10 knots

Barometer 1022.2 mb
Air temperature 19.0 ° C
Visibility: greater than 27.0 NM
Dewpoint 11.8 ° C
Water temperature 24.0 ° C

Date/timePositionNaut miles runAvg speedWind from/ knotsBaromVisibWave heightAir tempDewpointWater temp
2019-Feb-05 13:00N 28°42' W 080°06'20120.1 350 / 101022.227.0 19.011.824.0
2019-Feb-05 03:00N 32°00' W 079°24'35016.2 290 / 251020.6 5.4 18.014.621.0
2019-Feb-04 05:21N 37°11' W 076°09'1317.8
2019-Feb-04 04:36N 37°24' W 076°05'1019.0
2019-Feb-04 04:06N 37°33' W 076°02'419.3
2019-Feb-04 03:54N 37°36' W 076°05'1119.3
2019-Feb-04 03:19N 37°46' W 076°11'821.5
2019-Feb-04 02:55N 37°55' W 076°09'921.0
2019-Feb-04 02:29N 38°03' W 076°13'1421.7
2019-Feb-04 01:50N 38°17' W 076°17'722.1
2019-Feb-04 01:30N 38°24' W 076°21'1421.1
2019-Feb-04 00:50N 38°37' W 076°25'721.2
2019-Feb-04 00:29N 38°45' W 076°26'1020.9
2019-Feb-04 00:01N 38°55' W 076°24'916.7
2019-Feb-03 23:30N 39°03' W 076°23'714.6
2019-Feb-03 22:59N 39°10' W 076°26'5 9.8
2019-Feb-03 22:30N 39°13' W 076°31'4 8.4
2019-Feb-03 22:00N 39°15' W 076°35'1 1.4
2019-Feb-03 21:30N 39°16' W 076°36'0 0.0
2019-Feb-03 21:00N 39°16' W 076°36'0 0.0
2019-Feb-03 20:30N 39°16' W 076°36'0 0.0
2019-Feb-03 19:59N 39°16' W 076°36'0 0.0
2019-Feb-03 19:30N 39°16' W 076°36'0 0.0
2019-Feb-03 19:00N 39°16' W 076°36'0 0.0
2019-Feb-03 18:30N 39°16' W 076°36'0 0.0
2019-Feb-03 18:00N 39°16' W 076°36'0 0.0
2019-Feb-03 17:30N 39°16' W 076°36'0 0.0
2019-Feb-03 17:00N 39°16' W 076°36'0 0.0
2019-Feb-03 16:30N 39°16' W 076°36'0 0.0
2019-Feb-03 16:00N 39°16' W 076°36'0 0.0
2019-Feb-03 15:30N 39°16' W 076°36'0 0.0
2019-Feb-03 15:00N 39°16' W 076°36'0 0.0
2019-Feb-03 14:30N 39°16' W 076°36'0 0.0
2019-Feb-03 14:00N 39°16' W 076°36'0 0.2
2019-Feb-03 13:30N 39°16' W 076°36'3 5.8
2019-Feb-03 13:00N 39°14' W 076°33'612.1
2019-Feb-03 12:30N 39°11' W 076°26'5 9.3
2019-Feb-03 12:01N 39°07' W 076°24'814.9
2019-Feb-03 11:30N 38°59' W 076°23'1019.9
2019-Feb-03 11:00N 38°49' W 076°25'1020.3
2019-Feb-03 10:30N 38°39' W 076°25'1619.9
2019-Feb-03 09:41N 38°23' W 076°20'421.0
2019-Feb-03 09:29N 38°19' W 076°18'1120.8
2019-Feb-03 08:58N 38°09' W 076°14'920.5
2019-Feb-03 08:30N 37°60' W 076°12'1019.3
2019-Feb-03 08:00N 37°50' W 076°09'1218.6
2019-Feb-03 07:22N 37°39' W 076°07'918.3
2019-Feb-03 06:54N 37°31' W 076°03'818.9
2019-Feb-03 06:30N 37°23' W 076°05'2117.5
2019-Feb-03 05:17N 37°02' W 076°04'40918.4
2019-Feb-02 07:00N 30°48' W 079°24'29410.9 120 / 351028.0 5.4 20.016.723.0
2019-Feb-01 04:00N 26°06' W 077°48'148 5.9 060 / 301026.2 5.4 22.017.225.0
2019-Jan-31 03:00N 25°42' W 075°06'   040 / 201024.7 5.4 22.017.225.0
2019-Jan-28 18:00N 34°42' W 075°42'5117.1 340 / 451020.0 5.4 10.0 7.920.0
2019-Jan-28 15:00N 35°24' W 075°06'4916.3 360 / 301017.2 10.0 0.114.0
2019-Jan-28 12:00N 36°12' W 075°18'11016.1 050 / 351017.427.0 7.0 2.110.0
2019-Jan-28 05:08N 37°54' W 076°10'319.7
2019-Jan-28 04:58N 37°57' W 076°12'919.3
2019-Jan-28 04:29N 38°06' W 076°14'3518.6
2019-Jan-28 02:36N 38°40' W 076°25'318.7
2019-Jan-28 02:27N 38°43' W 076°26'818.1
2019-Jan-28 02:00N 38°51' W 076°24'816.2
2019-Jan-28 01:30N 38°59' W 076°23'714.5
2019-Jan-28 01:00N 39°06' W 076°24'611.7
2019-Jan-28 00:30N 39°11' W 076°28'612.3
2019-Jan-28 00:00N 39°15' W 076°34'2 3.5
2019-Jan-27 23:29N 39°16' W 076°36'0 0.0
2019-Jan-27 23:00N 39°16' W 076°36'0 0.0
2019-Jan-27 22:31N 39°16' W 076°36'0 0.0
2019-Jan-27 21:58N 39°16' W 076°36'0 0.0
2019-Jan-27 21:30N 39°16' W 076°36'0 0.0
2019-Jan-27 20:56N 39°16' W 076°36'0 0.0
2019-Jan-27 20:26N 39°16' W 076°36'0 0.0
2019-Jan-27 19:56N 39°16' W 076°36'0 0.0
2019-Jan-27 19:26N 39°16' W 076°36'0 0.0
2019-Jan-27 18:52N 39°16' W 076°36'0 0.0
2019-Jan-27 18:26N 39°16' W 076°36'0 0.0
2019-Jan-27 17:59N 39°16' W 076°36'0 0.0
2019-Jan-27 17:30N 39°16' W 076°36'0 0.0
2019-Jan-27 17:00N 39°16' W 076°36'0 0.0
2019-Jan-27 16:30N 39°16' W 076°36'0 0.0
2019-Jan-27 15:50N 39°16' W 076°36'0 0.0
2019-Jan-27 15:31N 39°16' W 076°36'0 0.0
2019-Jan-27 14:50N 39°16' W 076°36'0 0.0
2019-Jan-27 14:30N 39°16' W 076°36'0 0.0
2019-Jan-27 13:58N 39°16' W 076°36'0 0.0
2019-Jan-27 13:30N 39°16' W 076°36'3 5.2
2019-Jan-27 13:00N 39°14' W 076°33'510.4
2019-Jan-27 12:30N 39°11' W 076°28'511.0
2019-Jan-27 12:00N 39°07' W 076°24'714.5
2019-Jan-27 11:30N 38°60' W 076°23'918.2
2019-Jan-27 11:00N 38°51' W 076°24'918.9
2019-Jan-27 10:30N 38°41' W 076°25'918.8
2019-Jan-27 10:00N 38°32' W 076°25'1019.4
2019-Jan-27 09:31N 38°23' W 076°20'1019.1
2019-Jan-27 09:00N 38°14' W 076°16'1019.4
2019-Jan-27 08:30N 38°05' W 076°13'1019.2
2019-Jan-27 08:00N 37°55' W 076°09'1019.3
2019-Jan-27 07:30N 37°46' W 076°11'1218.2
2019-Jan-27 06:49N 37°35' W 076°04'617.7
2019-Jan-27 06:29N 37°29' W 076°04'3714.3
2019-Jan-27 03:53N 36°53' W 075°52'16118.1
2019-Jan-26 19:00N 34°12' W 075°42'   020 / 101028.027.0 12.0 2.923.0

Dump ship's entire track history